sensor_id;sensor_type;location;lat;lon;timestamp;temperature;humidity
49829;DHT22;35723;51.194;5.112;2023-02-17T00:00:11;12.60;99.90
49829;DHT22;35723;51.194;5.112;2023-02-17T00:02:37;12.60;99.90
49829;DHT22;35723;51.194;5.112;2023-02-17T00:05:04;12.60;99.90
49829;DHT22;35723;51.194;5.112;2023-02-17T00:07:31;12.60;99.90
49829;DHT22;35723;51.194;5.112;2023-02-17T00:09:58;12.80;99.90
49829;DHT22;35723;51.194;5.112;2023-02-17T00:12:23;12.80;99.90
49829;DHT22;35723;51.194;5.112;2023-02-17T00:14:49;12.80;99.90
49829;DHT22;35723;51.194;5.112;2023-02-17T00:17:15;12.70;99.90
49829;DHT22;35723;51.194;5.112;2023-02-17T00:19:41;12.60;99.90
49829;DHT22;35723;51.194;5.112;2023-02-17T00:22:06;12.50;99.90
49829;DHT22;35723;51.194;5.112;2023-02-17T00:24:35;12.60;99.90
49829;DHT22;35723;51.194;5.112;2023-02-17T00:27:01;12.70;99.90
49829;DHT22;35723;51.194;5.112;2023-02-17T00:29:27;12.60;99.90
49829;DHT22;35723;51.194;5.112;2023-02-17T00:31:53;12.60;99.90
49829;DHT22;35723;51.194;5.112;2023-02-17T00:34:19;12.70;99.90
49829;DHT22;35723;51.194;5.112;2023-02-17T00:36:45;12.60;99.90
49829;DHT22;35723;51.194;5.112;2023-02-17T00:39:16;12.60;99.90
49829;DHT22;35723;51.194;5.112;2023-02-17T00:41:42;12.50;99.90
49829;DHT22;35723;51.194;5.112;2023-02-17T00:44:23;12.50;99.90
49829;DHT22;35723;51.194;5.112;2023-02-17T00:46:49;12.50;99.90
49829;DHT22;35723;51.194;5.112;2023-02-17T00:49:23;12.60;99.90
49829;DHT22;35723;51.194;5.112;2023-02-17T00:51:50;12.60;99.90
49829;DHT22;35723;51.194;5.112;2023-02-17T00:54:17;12.40;99.90
49829;DHT22;35723;51.194;5.112;2023-02-17T00:56:43;12.40;99.90
49829;DHT22;35723;51.194;5.112;2023-02-17T00:59:09;12.30;99.90
49829;DHT22;35723;51.194;5.112;2023-02-17T01:01:35;12.40;99.90
49829;DHT22;35723;51.194;5.112;2023-02-17T01:04:01;12.30;99.90
49829;DHT22;35723;51.194;5.112;2023-02-17T01:06:31;12.40;99.90
49829;DHT22;35723;51.194;5.112;2023-02-17T01:08:57;12.50;99.90
49829;DHT22;35723;51.194;5.112;2023-02-17T01:11:26;12.50;99.90
49829;DHT22;35723;51.194;5.112;2023-02-17T01:13:52;12.40;99.90
49829;DHT22;35723;51.194;5.112;2023-02-17T01:16:25;12.50;99.90
49829;DHT22;35723;51.194;5.112;2023-02-17T01:18:51;12.50;99.90
49829;DHT22;35723;51.194;5.112;2023-02-17T01:21:19;12.60;99.90
49829;DHT22;35723;51.194;5.112;2023-02-17T01:23:47;12.60;99.90
49829;DHT22;35723;51.194;5.112;2023-02-17T01:26:18;12.70;99.90
49829;DHT22;35723;51.194;5.112;2023-02-17T01:28:45;12.60;99.90
49829;DHT22;35723;51.194;5.112;2023-02-17T01:31:11;12.60;99.90
49829;DHT22;35723;51.194;5.112;2023-02-17T01:33:37;12.60;99.90
49829;DHT22;35723;51.194;5.112;2023-02-17T01:36:05;12.60;99.90
49829;DHT22;35723;51.194;5.112;2023-02-17T01:38:31;12.40;99.90
49829;DHT22;35723;51.194;5.112;2023-02-17T01:40:57;12.40;99.90
49829;DHT22;35723;51.194;5.112;2023-02-17T01:43:23;12.40;99.90
49829;DHT22;35723;51.194;5.112;2023-02-17T01:45:54;12.40;99.90
49829;DHT22;35723;51.194;5.112;2023-02-17T01:50:59;12.50;99.90
49829;DHT22;35723;51.194;5.112;2023-02-17T01:53:56;12.50;99.90
49829;DHT22;35723;51.194;5.112;2023-02-17T01:56:22;12.50;99.90
49829;DHT22;35723;51.194;5.112;2023-02-17T01:58:58;12.40;99.90
49829;DHT22;35723;51.194;5.112;2023-02-17T02:01:25;12.40;99.90
49829;DHT22;35723;51.194;5.112;2023-02-17T02:03:51;12.50;99.90
49829;DHT22;35723;51.194;5.112;2023-02-17T02:06:19;12.50;99.90
49829;DHT22;35723;51.194;5.112;2023-02-17T02:11:23;12.50;99.90
49829;DHT22;35723;51.194;5.112;2023-02-17T02:13:49;12.40;99.90
49829;DHT22;35723;51.194;5.112;2023-02-17T02:16:44;12.40;99.90
49829;DHT22;35723;51.194;5.112;2023-02-17T02:28:18;12.40;99.90
49829;DHT22;35723;51.194;5.112;2023-02-17T02:33:46;12.40;99.90
49829;DHT22;35723;51.194;5.112;2023-02-17T02:39:00;12.40;99.90
49829;DHT22;35723;51.194;5.112;2023-02-17T02:41:31;12.30;99.90
49829;DHT22;35723;51.194;5.112;2023-02-17T02:43:58;12.40;99.90
49829;DHT22;35723;51.194;5.112;2023-02-17T02:46:24;12.30;99.90
49829;DHT22;35723;51.194;5.112;2023-02-17T02:48:50;12.30;99.90
49829;DHT22;35723;51.194;5.112;2023-02-17T02:51:25;12.30;99.90
49829;DHT22;35723;51.194;5.112;2023-02-17T02:54:08;12.30;99.90
49829;DHT22;35723;51.194;5.112;2023-02-17T03:07:26;12.40;99.90
49829;DHT22;35723;51.194;5.112;2023-02-17T03:09:55;12.30;99.90
49829;DHT22;35723;51.194;5.112;2023-02-17T03:12:24;12.30;99.90
49829;DHT22;35723;51.194;5.112;2023-02-17T03:14:55;12.40;99.90
49829;DHT22;35723;51.194;5.112;2023-02-17T03:17:23;12.30;99.90
49829;DHT22;35723;51.194;5.112;2023-02-17T03:19:49;12.30;99.90
49829;DHT22;35723;51.194;5.112;2023-02-17T03:22:21;12.40;99.90
49829;DHT22;35723;51.194;5.112;2023-02-17T03:24:48;12.50;99.90
49829;DHT22;35723;51.194;5.112;2023-02-17T03:27:13;12.40;99.90
49829;DHT22;35723;51.194;5.112;2023-02-17T03:29:39;12.30;99.90
49829;DHT22;35723;51.194;5.112;2023-02-17T03:32:05;12.20;99.90
49829;DHT22;35723;51.194;5.112;2023-02-17T03:34:31;12.10;99.90
49829;DHT22;35723;51.194;5.112;2023-02-17T03:36:56;12.00;99.90
49829;DHT22;35723;51.194;5.112;2023-02-17T03:39:22;12.00;99.90
49829;DHT22;35723;51.194;5.112;2023-02-17T03:41:48;12.00;99.90
49829;DHT22;35723;51.194;5.112;2023-02-17T03:44:16;12.10;99.90
49829;DHT22;35723;51.194;5.112;2023-02-17T03:46:44;12.20;99.90
49829;DHT22;35723;51.194;5.112;2023-02-17T03:49:09;12.10;99.90
49829;DHT22;35723;51.194;5.112;2023-02-17T03:51:35;11.90;99.90
49829;DHT22;35723;51.194;5.112;2023-02-17T03:54:01;11.90;99.90
49829;DHT22;35723;51.194;5.112;2023-02-17T03:56:26;11.90;99.90
49829;DHT22;35723;51.194;5.112;2023-02-17T03:58:54;12.00;99.90
49829;DHT22;35723;51.194;5.112;2023-02-17T04:01:20;12.00;99.90
49829;DHT22;35723;51.194;5.112;2023-02-17T04:03:45;12.00;99.90
49829;DHT22;35723;51.194;5.112;2023-02-17T04:06:11;12.00;99.90
49829;DHT22;35723;51.194;5.112;2023-02-17T04:08:38;12.10;99.90
49829;DHT22;35723;51.194;5.112;2023-02-17T04:11:05;12.10;99.90
49829;DHT22;35723;51.194;5.112;2023-02-17T04:13:32;12.10;99.90
49829;DHT22;35723;51.194;5.112;2023-02-17T04:15:58;12.10;99.90
49829;DHT22;35723;51.194;5.112;2023-02-17T04:18:26;12.10;99.90
49829;DHT22;35723;51.194;5.112;2023-02-17T04:20:52;12.10;99.90
49829;DHT22;35723;51.194;5.112;2023-02-17T04:23:18;12.10;99.90
49829;DHT22;35723;51.194;5.112;2023-02-17T04:25:44;12.10;99.90
49829;DHT22;35723;51.194;5.112;2023-02-17T04:28:11;12.10;99.90
49829;DHT22;35723;51.194;5.112;2023-02-17T04:30:38;12.10;99.90
49829;DHT22;35723;51.194;5.112;2023-02-17T04:33:04;12.10;99.90
49829;DHT22;35723;51.194;5.112;2023-02-17T04:35:30;12.00;99.90
49829;DHT22;35723;51.194;5.112;2023-02-17T04:37:55;12.00;99.90
49829;DHT22;35723;51.194;5.112;2023-02-17T04:40:21;12.00;99.90
49829;DHT22;35723;51.194;5.112;2023-02-17T04:42:47;12.00;99.90
49829;DHT22;35723;51.194;5.112;2023-02-17T04:45:14;12.20;99.90
49829;DHT22;35723;51.194;5.112;2023-02-17T04:47:39;12.00;99.90
49829;DHT22;35723;51.194;5.112;2023-02-17T04:50:07;12.10;99.90
49829;DHT22;35723;51.194;5.112;2023-02-17T04:52:32;12.10;99.90
49829;DHT22;35723;51.194;5.112;2023-02-17T04:54:58;12.20;99.90
49829;DHT22;35723;51.194;5.112;2023-02-17T04:57:24;12.10;99.90
49829;DHT22;35723;51.194;5.112;2023-02-17T04:59:49;11.90;99.90
49829;DHT22;35723;51.194;5.112;2023-02-17T05:02:16;12.00;99.90
49829;DHT22;35723;51.194;5.112;2023-02-17T05:04:41;12.10;99.90
49829;DHT22;35723;51.194;5.112;2023-02-17T05:07:07;12.10;99.90
49829;DHT22;35723;51.194;5.112;2023-02-17T05:09:33;12.00;99.90
49829;DHT22;35723;51.194;5.112;2023-02-17T05:11:58;12.00;99.90
49829;DHT22;35723;51.194;5.112;2023-02-17T05:14:24;11.90;99.90
49829;DHT22;35723;51.194;5.112;2023-02-17T05:16:50;12.00;99.90
49829;DHT22;35723;51.194;5.112;2023-02-17T05:19:15;12.10;99.90
49829;DHT22;35723;51.194;5.112;2023-02-17T05:21:41;12.10;99.90
49829;DHT22;35723;51.194;5.112;2023-02-17T05:24:07;12.00;99.90
49829;DHT22;35723;51.194;5.112;2023-02-17T05:26:32;12.00;99.90
49829;DHT22;35723;51.194;5.112;2023-02-17T05:28:58;12.00;99.90
49829;DHT22;35723;51.194;5.112;2023-02-17T05:31:24;12.10;99.90
49829;DHT22;35723;51.194;5.112;2023-02-17T05:33:49;12.00;99.90
49829;DHT22;35723;51.194;5.112;2023-02-17T05:36:15;12.00;99.90
49829;DHT22;35723;51.194;5.112;2023-02-17T05:38:41;11.90;99.90
49829;DHT22;35723;51.194;5.112;2023-02-17T05:41:08;11.90;99.90
49829;DHT22;35723;51.194;5.112;2023-02-17T05:43:33;11.90;99.90
49829;DHT22;35723;51.194;5.112;2023-02-17T05:46:02;11.90;99.90
49829;DHT22;35723;51.194;5.112;2023-02-17T05:48:29;12.00;99.90
49829;DHT22;35723;51.194;5.112;2023-02-17T05:50:55;11.90;99.90
49829;DHT22;35723;51.194;5.112;2023-02-17T05:53:20;11.90;99.90
49829;DHT22;35723;51.194;5.112;2023-02-17T05:55:46;12.00;99.90
49829;DHT22;35723;51.194;5.112;2023-02-17T05:58:11;12.00;99.90
49829;DHT22;35723;51.194;5.112;2023-02-17T06:00:37;12.00;99.90
49829;DHT22;35723;51.194;5.112;2023-02-17T06:03:03;12.00;99.90
49829;DHT22;35723;51.194;5.112;2023-02-17T06:05:28;12.00;99.90
49829;DHT22;35723;51.194;5.112;2023-02-17T06:07:54;12.00;99.90
49829;DHT22;35723;51.194;5.112;2023-02-17T06:10:20;11.90;99.90
49829;DHT22;35723;51.194;5.112;2023-02-17T06:12:46;11.90;99.90
49829;DHT22;35723;51.194;5.112;2023-02-17T06:15:11;11.90;99.90
49829;DHT22;35723;51.194;5.112;2023-02-17T06:17:37;11.90;99.90
49829;DHT22;35723;51.194;5.112;2023-02-17T06:20:03;11.90;99.90
49829;DHT22;35723;51.194;5.112;2023-02-17T06:22:29;11.90;99.90
49829;DHT22;35723;51.194;5.112;2023-02-17T06:24:55;12.00;99.90
49829;DHT22;35723;51.194;5.112;2023-02-17T06:27:20;12.00;99.90
49829;DHT22;35723;51.194;5.112;2023-02-17T06:29:46;12.00;99.90
49829;DHT22;35723;51.194;5.112;2023-02-17T06:32:12;11.90;99.90
49829;DHT22;35723;51.194;5.112;2023-02-17T06:34:37;12.00;99.90
49829;DHT22;35723;51.194;5.112;2023-02-17T06:37:03;11.90;99.90
49829;DHT22;35723;51.194;5.112;2023-02-17T06:39:29;12.00;99.90
49829;DHT22;35723;51.194;5.112;2023-02-17T06:41:54;11.80;99.90
49829;DHT22;35723;51.194;5.112;2023-02-17T06:44:20;11.80;99.90
49829;DHT22;35723;51.194;5.112;2023-02-17T06:46:45;11.80;99.90
49829;DHT22;35723;51.194;5.112;2023-02-17T06:49:12;11.90;99.90
49829;DHT22;35723;51.194;5.112;2023-02-17T06:51:38;11.80;99.90
49829;DHT22;35723;51.194;5.112;2023-02-17T06:54:04;11.90;99.90
49829;DHT22;35723;51.194;5.112;2023-02-17T06:56:30;11.80;99.90
49829;DHT22;35723;51.194;5.112;2023-02-17T06:58:56;11.90;99.90
49829;DHT22;35723;51.194;5.112;2023-02-17T07:01:23;11.90;99.90
49829;DHT22;35723;51.194;5.112;2023-02-17T07:03:53;12.00;99.90
49829;DHT22;35723;51.194;5.112;2023-02-17T07:06:19;12.00;99.90
49829;DHT22;35723;51.194;5.112;2023-02-17T07:08:45;12.00;99.90
49829;DHT22;35723;51.194;5.112;2023-02-17T07:11:12;11.90;99.90
49829;DHT22;35723;51.194;5.112;2023-02-17T07:13:39;12.00;99.90
49829;DHT22;35723;51.194;5.112;2023-02-17T07:16:09;11.90;99.90
49829;DHT22;35723;51.194;5.112;2023-02-17T07:18:35;12.00;99.90
49829;DHT22;35723;51.194;5.112;2023-02-17T07:21:06;11.80;99.90
49829;DHT22;35723;51.194;5.112;2023-02-17T07:23:32;11.80;99.90
49829;DHT22;35723;51.194;5.112;2023-02-17T07:26:02;11.80;99.90
49829;DHT22;35723;51.194;5.112;2023-02-17T07:28:27;11.80;99.90
49829;DHT22;35723;51.194;5.112;2023-02-17T07:30:53;11.80;99.90
49829;DHT22;35723;51.194;5.112;2023-02-17T07:33:19;11.90;99.90
49829;DHT22;35723;51.194;5.112;2023-02-17T07:35:44;11.90;99.90
49829;DHT22;35723;51.194;5.112;2023-02-17T07:38:11;11.90;99.90
49829;DHT22;35723;51.194;5.112;2023-02-17T07:40:37;12.00;99.90
49829;DHT22;35723;51.194;5.112;2023-02-17T07:43:03;12.10;99.90
49829;DHT22;35723;51.194;5.112;2023-02-17T07:45:28;12.00;99.90
49829;DHT22;35723;51.194;5.112;2023-02-17T07:47:54;11.90;99.90
49829;DHT22;35723;51.194;5.112;2023-02-17T07:50:20;12.00;99.90
49829;DHT22;35723;51.194;5.112;2023-02-17T07:52:46;12.00;99.90
49829;DHT22;35723;51.194;5.112;2023-02-17T07:55:11;12.00;99.90
49829;DHT22;35723;51.194;5.112;2023-02-17T07:57:37;12.10;99.90
49829;DHT22;35723;51.194;5.112;2023-02-17T08:00:04;12.00;99.90
49829;DHT22;35723;51.194;5.112;2023-02-17T08:02:30;11.90;99.90
49829;DHT22;35723;51.194;5.112;2023-02-17T08:04:56;11.90;99.90
49829;DHT22;35723;51.194;5.112;2023-02-17T08:07:21;12.10;99.90
49829;DHT22;35723;51.194;5.112;2023-02-17T08:09:47;12.10;99.90
49829;DHT22;35723;51.194;5.112;2023-02-17T08:12:31;12.10;99.90
49829;DHT22;35723;51.194;5.112;2023-02-17T08:15:15;12.20;99.90
49829;DHT22;35723;51.194;5.112;2023-02-17T08:17:40;12.30;99.90
49829;DHT22;35723;51.194;5.112;2023-02-17T08:20:07;12.20;99.90
49829;DHT22;35723;51.194;5.112;2023-02-17T08:22:33;12.20;99.90
49829;DHT22;35723;51.194;5.112;2023-02-17T08:24:59;12.30;99.90
49829;DHT22;35723;51.194;5.112;2023-02-17T08:27:25;12.50;99.90
49829;DHT22;35723;51.194;5.112;2023-02-17T08:29:50;12.20;99.90
49829;DHT22;35723;51.194;5.112;2023-02-17T08:32:16;12.10;99.90
49829;DHT22;35723;51.194;5.112;2023-02-17T08:34:42;12.20;99.90
49829;DHT22;35723;51.194;5.112;2023-02-17T08:37:09;12.20;99.90
49829;DHT22;35723;51.194;5.112;2023-02-17T08:39:35;12.20;99.90
49829;DHT22;35723;51.194;5.112;2023-02-17T08:42:02;12.20;99.90
49829;DHT22;35723;51.194;5.112;2023-02-17T08:44:28;12.20;99.90
49829;DHT22;35723;51.194;5.112;2023-02-17T08:46:54;12.20;99.90
49829;DHT22;35723;51.194;5.112;2023-02-17T08:49:22;12.30;99.90
49829;DHT22;35723;51.194;5.112;2023-02-17T08:51:49;12.20;99.90
49829;DHT22;35723;51.194;5.112;2023-02-17T08:54:15;12.20;99.90
49829;DHT22;35723;51.194;5.112;2023-02-17T08:56:41;12.30;99.90
49829;DHT22;35723;51.194;5.112;2023-02-17T08:59:08;12.20;99.90
49829;DHT22;35723;51.194;5.112;2023-02-17T09:01:35;12.20;99.90
49829;DHT22;35723;51.194;5.112;2023-02-17T09:04:03;12.20;99.90
49829;DHT22;35723;51.194;5.112;2023-02-17T09:06:34;12.40;99.90
49829;DHT22;35723;51.194;5.112;2023-02-17T09:09:00;12.40;99.90
49829;DHT22;35723;51.194;5.112;2023-02-17T09:11:26;12.40;99.90
49829;DHT22;35723;51.194;5.112;2023-02-17T09:13:52;12.40;99.90
49829;DHT22;35723;51.194;5.112;2023-02-17T09:16:18;12.50;99.90
49829;DHT22;35723;51.194;5.112;2023-02-17T09:18:45;12.60;99.90
49829;DHT22;35723;51.194;5.112;2023-02-17T09:21:12;12.60;99.90
49829;DHT22;35723;51.194;5.112;2023-02-17T09:23:38;12.60;99.90
49829;DHT22;35723;51.194;5.112;2023-02-17T09:26:10;12.60;99.90
49829;DHT22;35723;51.194;5.112;2023-02-17T09:28:40;12.60;99.90
49829;DHT22;35723;51.194;5.112;2023-02-17T09:33:34;12.80;99.90
49829;DHT22;35723;51.194;5.112;2023-02-17T09:36:00;12.90;99.90
49829;DHT22;35723;51.194;5.112;2023-02-17T09:38:26;12.90;99.90
49829;DHT22;35723;51.194;5.112;2023-02-17T09:40:51;12.80;99.90
49829;DHT22;35723;51.194;5.112;2023-02-17T09:43:25;12.80;99.90
49829;DHT22;35723;51.194;5.112;2023-02-17T09:45:56;12.80;99.90
49829;DHT22;35723;51.194;5.112;2023-02-17T09:48:26;12.80;99.90
49829;DHT22;35723;51.194;5.112;2023-02-17T09:51:00;12.80;99.90
49829;DHT22;35723;51.194;5.112;2023-02-17T09:53:32;13.00;99.90
49829;DHT22;35723;51.194;5.112;2023-02-17T09:56:03;13.10;99.90
49829;DHT22;35723;51.194;5.112;2023-02-17T09:58:45;13.00;99.90
49829;DHT22;35723;51.194;5.112;2023-02-17T10:01:38;13.10;99.90
49829;DHT22;35723;51.194;5.112;2023-02-17T10:04:12;13.00;99.90
49829;DHT22;35723;51.194;5.112;2023-02-17T10:06:45;13.00;99.90
49829;DHT22;35723;51.194;5.112;2023-02-17T10:09:27;13.00;99.90
49829;DHT22;35723;51.194;5.112;2023-02-17T10:14:35;13.00;99.90
49829;DHT22;35723;51.194;5.112;2023-02-17T10:17:03;13.00;99.90
49829;DHT22;35723;51.194;5.112;2023-02-17T10:22:24;13.20;99.90
49829;DHT22;35723;51.194;5.112;2023-02-17T10:24:51;13.20;99.90
49829;DHT22;35723;51.194;5.112;2023-02-17T10:27:36;13.30;99.90
49829;DHT22;35723;51.194;5.112;2023-02-17T10:33:01;13.30;99.90
49829;DHT22;35723;51.194;5.112;2023-02-17T10:35:49;13.30;99.90
49829;DHT22;35723;51.194;5.112;2023-02-17T10:41:03;13.30;99.90
49829;DHT22;35723;51.194;5.112;2023-02-17T10:43:31;13.40;99.90
49829;DHT22;35723;51.194;5.112;2023-02-17T10:45:59;13.50;99.90
49829;DHT22;35723;51.194;5.112;2023-02-17T10:48:39;13.40;99.90
49829;DHT22;35723;51.194;5.112;2023-02-17T10:51:16;13.60;99.90
49829;DHT22;35723;51.194;5.112;2023-02-17T10:53:46;13.80;99.90
49829;DHT22;35723;51.194;5.112;2023-02-17T10:56:18;13.60;99.90
49829;DHT22;35723;51.194;5.112;2023-02-17T11:01:24;13.50;99.90
49829;DHT22;35723;51.194;5.112;2023-02-17T11:04:05;13.50;99.90
49829;DHT22;35723;51.194;5.112;2023-02-17T11:06:36;13.50;99.90
49829;DHT22;35723;51.194;5.112;2023-02-17T11:09:04;13.70;99.90
49829;DHT22;35723;51.194;5.112;2023-02-17T11:11:34;13.60;99.90
49829;DHT22;35723;51.194;5.112;2023-02-17T11:16:35;13.80;99.90
49829;DHT22;35723;51.194;5.112;2023-02-17T11:19:02;13.90;99.90
49829;DHT22;35723;51.194;5.112;2023-02-17T11:21:28;13.80;99.90
49829;DHT22;35723;51.194;5.112;2023-02-17T11:23:57;13.80;99.90
49829;DHT22;35723;51.194;5.112;2023-02-17T11:26:26;13.80;99.90
49829;DHT22;35723;51.194;5.112;2023-02-17T11:28:52;13.80;99.90
49829;DHT22;35723;51.194;5.112;2023-02-17T11:31:26;13.80;99.90
49829;DHT22;35723;51.194;5.112;2023-02-17T11:33:52;14.00;99.90
49829;DHT22;35723;51.194;5.112;2023-02-17T11:36:29;14.00;99.90
49829;DHT22;35723;51.194;5.112;2023-02-17T11:38:56;14.10;99.90
49829;DHT22;35723;51.194;5.112;2023-02-17T11:41:22;14.10;99.90
49829;DHT22;35723;51.194;5.112;2023-02-17T11:43:53;14.20;99.90
49829;DHT22;35723;51.194;5.112;2023-02-17T11:46:49;14.30;99.90
49829;DHT22;35723;51.194;5.112;2023-02-17T12:12:55;14.50;99.90
49829;DHT22;35723;51.194;5.112;2023-02-17T12:15:09;14.50;99.90
49829;DHT22;35723;51.194;5.112;2023-02-17T12:18:05;14.50;99.90
49829;DHT22;35723;51.194;5.112;2023-02-17T12:32:00;14.30;99.90
49829;DHT22;35723;51.194;5.112;2023-02-17T12:34:35;14.40;99.90
49829;DHT22;35723;51.194;5.112;2023-02-17T12:37:05;14.50;99.90
49829;DHT22;35723;51.194;5.112;2023-02-17T12:39:46;14.50;99.90
49829;DHT22;35723;51.194;5.112;2023-02-17T12:42:22;14.50;99.90
49829;DHT22;35723;51.194;5.112;2023-02-17T12:44:53;14.60;99.90
49829;DHT22;35723;51.194;5.112;2023-02-17T12:47:34;14.60;99.90
49829;DHT22;35723;51.194;5.112;2023-02-17T12:50:20;14.40;99.90
49829;DHT22;35723;51.194;5.112;2023-02-17T12:52:51;14.30;99.90
49829;DHT22;35723;51.194;5.112;2023-02-17T12:55:24;14.30;99.90
49829;DHT22;35723;51.194;5.112;2023-02-17T12:57:57;14.30;99.90
49829;DHT22;35723;51.194;5.112;2023-02-17T13:00:33;14.10;99.90
49829;DHT22;35723;51.194;5.112;2023-02-17T13:03:00;14.20;99.90
49829;DHT22;35723;51.194;5.112;2023-02-17T13:05:33;14.20;99.90
49829;DHT22;35723;51.194;5.112;2023-02-17T13:08:05;14.40;99.90
49829;DHT22;35723;51.194;5.112;2023-02-17T13:10:36;14.30;99.90
49829;DHT22;35723;51.194;5.112;2023-02-17T13:13:23;14.30;99.90
49829;DHT22;35723;51.194;5.112;2023-02-17T13:18:31;14.30;99.90
49829;DHT22;35723;51.194;5.112;2023-02-17T13:21:02;14.20;99.90
49829;DHT22;35723;51.194;5.112;2023-02-17T13:23:41;14.20;99.90
49829;DHT22;35723;51.194;5.112;2023-02-17T13:28:46;14.20;99.90
49829;DHT22;35723;51.194;5.112;2023-02-17T13:31:23;14.20;99.90
49829;DHT22;35723;51.194;5.112;2023-02-17T13:33:55;14.30;99.90
49829;DHT22;35723;51.194;5.112;2023-02-17T13:36:35;14.30;99.90
49829;DHT22;35723;51.194;5.112;2023-02-17T13:39:51;14.20;99.90
49829;DHT22;35723;51.194;5.112;2023-02-17T13:41:54;14.10;99.90
49829;DHT22;35723;51.194;5.112;2023-02-17T13:47:05;14.10;99.90
49829;DHT22;35723;51.194;5.112;2023-02-17T13:49:32;14.20;99.90
49829;DHT22;35723;51.194;5.112;2023-02-17T13:52:15;14.20;99.90
49829;DHT22;35723;51.194;5.112;2023-02-17T13:54:56;14.20;99.90
49829;DHT22;35723;51.194;5.112;2023-02-17T13:57:30;14.30;99.90
49829;DHT22;35723;51.194;5.112;2023-02-17T14:00:09;14.30;99.90
49829;DHT22;35723;51.194;5.112;2023-02-17T14:05:39;14.20;99.90
49829;DHT22;35723;51.194;5.112;2023-02-17T14:08:36;14.20;99.90
49829;DHT22;35723;51.194;5.112;2023-02-17T14:13:45;13.90;99.90
49829;DHT22;35723;51.194;5.112;2023-02-17T14:21:30;13.80;99.90
49829;DHT22;35723;51.194;5.112;2023-02-17T14:23:57;13.90;99.90
49829;DHT22;35723;51.194;5.112;2023-02-17T14:26:45;13.80;99.90
49829;DHT22;35723;51.194;5.112;2023-02-17T14:29:12;14.00;99.90
49829;DHT22;35723;51.194;5.112;2023-02-17T14:34:06;13.90;99.90
49829;DHT22;35723;51.194;5.112;2023-02-17T14:36:39;13.70;99.90
49829;DHT22;35723;51.194;5.112;2023-02-17T14:39:12;13.80;99.90
49829;DHT22;35723;51.194;5.112;2023-02-17T14:41:38;13.80;99.90
49829;DHT22;35723;51.194;5.112;2023-02-17T14:44:04;13.70;99.90
49829;DHT22;35723;51.194;5.112;2023-02-17T14:46:31;13.70;99.90
49829;DHT22;35723;51.194;5.112;2023-02-17T14:48:57;13.70;99.90
49829;DHT22;35723;51.194;5.112;2023-02-17T14:51:24;13.60;99.90
49829;DHT22;35723;51.194;5.112;2023-02-17T14:53:51;13.50;99.90
49829;DHT22;35723;51.194;5.112;2023-02-17T14:56:31;13.50;99.90
49829;DHT22;35723;51.194;5.112;2023-02-17T14:58:57;13.50;99.90
49829;DHT22;35723;51.194;5.112;2023-02-17T15:01:24;13.60;99.90
49829;DHT22;35723;51.194;5.112;2023-02-17T15:03:51;13.60;99.90
49829;DHT22;35723;51.194;5.112;2023-02-17T15:06:22;13.60;99.90
49829;DHT22;35723;51.194;5.112;2023-02-17T15:08:49;13.60;99.90
49829;DHT22;35723;51.194;5.112;2023-02-17T15:13:45;13.60;99.90
49829;DHT22;35723;51.194;5.112;2023-02-17T15:16:11;13.50;99.90
49829;DHT22;35723;51.194;5.112;2023-02-17T15:18:37;13.50;99.90
49829;DHT22;35723;51.194;5.112;2023-02-17T15:21:30;13.60;99.90
49829;DHT22;35723;51.194;5.112;2023-02-17T15:23:58;13.70;99.90
49829;DHT22;35723;51.194;5.112;2023-02-17T15:26:25;13.60;99.90
49829;DHT22;35723;51.194;5.112;2023-02-17T15:28:51;13.60;99.90
49829;DHT22;35723;51.194;5.112;2023-02-17T15:31:16;13.60;99.90
49829;DHT22;35723;51.194;5.112;2023-02-17T15:33:48;13.70;99.90
49829;DHT22;35723;51.194;5.112;2023-02-17T15:36:16;13.70;99.90
49829;DHT22;35723;51.194;5.112;2023-02-17T15:38:42;13.60;99.90
49829;DHT22;35723;51.194;5.112;2023-02-17T15:41:16;13.60;99.90
49829;DHT22;35723;51.194;5.112;2023-02-17T15:43:43;13.70;99.90
49829;DHT22;35723;51.194;5.112;2023-02-17T15:46:15;13.70;99.90
49829;DHT22;35723;51.194;5.112;2023-02-17T15:48:42;13.80;99.90
49829;DHT22;35723;51.194;5.112;2023-02-17T15:51:10;13.70;99.90
49829;DHT22;35723;51.194;5.112;2023-02-17T15:53:36;13.60;99.90
49829;DHT22;35723;51.194;5.112;2023-02-17T15:56:02;13.60;99.90
49829;DHT22;35723;51.194;5.112;2023-02-17T15:58:29;13.60;99.90
49829;DHT22;35723;51.194;5.112;2023-02-17T16:01:00;13.40;99.90
49829;DHT22;35723;51.194;5.112;2023-02-17T16:03:25;13.40;99.90
49829;DHT22;35723;51.194;5.112;2023-02-17T16:05:51;13.40;99.90
49829;DHT22;35723;51.194;5.112;2023-02-17T16:08:18;13.40;99.90
49829;DHT22;35723;51.194;5.112;2023-02-17T16:10:44;13.50;99.90
49829;DHT22;35723;51.194;5.112;2023-02-17T16:13:13;13.40;99.90
49829;DHT22;35723;51.194;5.112;2023-02-17T16:15:40;13.40;99.90
49829;DHT22;35723;51.194;5.112;2023-02-17T16:18:18;13.60;99.90
49829;DHT22;35723;51.194;5.112;2023-02-17T16:20:45;13.40;99.90
49829;DHT22;35723;51.194;5.112;2023-02-17T16:23:11;13.50;99.90
49829;DHT22;35723;51.194;5.112;2023-02-17T16:25:37;13.40;99.90
49829;DHT22;35723;51.194;5.112;2023-02-17T16:28:04;13.40;99.90
49829;DHT22;35723;51.194;5.112;2023-02-17T16:30:32;13.40;99.90
49829;DHT22;35723;51.194;5.112;2023-02-17T16:32:59;13.40;99.90
49829;DHT22;35723;51.194;5.112;2023-02-17T16:35:27;13.40;99.90
49829;DHT22;35723;51.194;5.112;2023-02-17T16:38:04;13.40;99.90
49829;DHT22;35723;51.194;5.112;2023-02-17T16:40:34;13.30;99.90
49829;DHT22;35723;51.194;5.112;2023-02-17T16:43:01;13.40;99.90
49829;DHT22;35723;51.194;5.112;2023-02-17T16:45:28;13.40;99.90
49829;DHT22;35723;51.194;5.112;2023-02-17T16:47:57;13.50;99.90
49829;DHT22;35723;51.194;5.112;2023-02-17T16:50:32;13.50;99.90
49829;DHT22;35723;51.194;5.112;2023-02-17T16:53:01;13.30;99.90
49829;DHT22;35723;51.194;5.112;2023-02-17T16:55:29;13.30;99.90
49829;DHT22;35723;51.194;5.112;2023-02-17T16:57:56;13.30;99.90
49829;DHT22;35723;51.194;5.112;2023-02-17T17:00:28;13.30;99.90
49829;DHT22;35723;51.194;5.112;2023-02-17T17:02:55;13.20;99.90
49829;DHT22;35723;51.194;5.112;2023-02-17T17:05:25;13.50;99.90
49829;DHT22;35723;51.194;5.112;2023-02-17T17:07:52;13.50;99.90
49829;DHT22;35723;51.194;5.112;2023-02-17T17:10:24;13.20;99.90
49829;DHT22;35723;51.194;5.112;2023-02-17T17:12:50;13.10;99.90
49829;DHT22;35723;51.194;5.112;2023-02-17T17:15:17;13.10;99.90
49829;DHT22;35723;51.194;5.112;2023-02-17T17:20:17;13.20;99.90
49829;DHT22;35723;51.194;5.112;2023-02-17T17:22:44;13.40;99.90
49829;DHT22;35723;51.194;5.112;2023-02-17T17:25:14;13.30;99.90
49829;DHT22;35723;51.194;5.112;2023-02-17T17:27:40;13.30;99.90
49829;DHT22;35723;51.194;5.112;2023-02-17T17:30:07;13.40;99.90